This is the latest recevied weather packets stored in our database for station/object KC5TIL-3. If no packets are shown the sender has not sent any weather packets the latest 10 day(s).
| Time | Temp. | Humidity | Pressure | Rain* | Wind** | Luminosity | Snow |
|---|---|---|---|---|---|---|---|
| 1787888089 | 33.33° C | 14% | 1012.8 hPa | 0 mm | 3.13 m/s, 111° | - | - |
| 1787887790 | 33.33° C | 14% | 1012.8 hPa | 0 mm | 3.13 m/s, 123° | - | - |
| 1787887484 | 33.33° C | 14% | 1012.8 hPa | 0 mm | 1.79 m/s, 141° | - | - |
| 1787887186 | 33.33° C | 14% | 1012.8 hPa | 0 mm | 4.02 m/s, 116° | - | - |
| 1787886883 | 33.33° C | 14% | 1012.8 hPa | 0 mm | 3.58 m/s, 134° | - | - |
| 1787886582 | 33.89° C | 14% | 1012.8 hPa | 0 mm | 4.02 m/s, 123° | - | - |
| 1787886284 | 33.89° C | 14% | 1012.8 hPa | 0 mm | 3.13 m/s, 115° | - | - |
| 1787885986 | 33.89° C | 14% | 1011.8 hPa | 0 mm | 2.68 m/s, 118° | - | - |
| 1787885684 | 33.89° C | 14% | 1011.8 hPa | 0 mm | 3.13 m/s, 117° | - | - |
| 1787885386 | 33.89° C | 14% | 1011.8 hPa | 0 mm | 4.47 m/s, 94° | - | - |
| 1787885088 | 33.89° C | 14% | 1011.8 hPa | 0 mm | 3.13 m/s, 141° | - | - |
| 1787884787 | 33.89° C | 14% | 1011.8 hPa | 0 mm | 2.68 m/s, 123° | - | - |
| 1787884488 | 33.89° C | 14% | 1011.8 hPa | 0 mm | 3.13 m/s, 138° | - | - |
| 1787884190 | 33.89° C | 14% | 1011.8 hPa | 0 mm | 3.58 m/s, 108° | - | - |
| 1787883889 | 33.89° C | 14% | 1011.8 hPa | 0 mm | 3.13 m/s, 104° | - | - |
| 1787883591 | 33.89° C | 14% | 1011.8 hPa | 0 mm | 3.13 m/s, 122° | - | - |
| 1787883293 | 33.89° C | 14% | 1011.8 hPa | 0 mm | 2.24 m/s, 128° | - | - |
| 1787882991 | 34.44° C | 14% | 1011.8 hPa | 0 mm | 2.24 m/s, 125° | - | - |
| 1787882683 | 34.44° C | 14% | 1011.8 hPa | 0 mm | 2.68 m/s, 131° | - | - |
| 1787882385 | 34.44° C | 14% | 1010.8 hPa | 0 mm | 3.13 m/s, 127° | - | - |
| 1787882084 | 34.44° C | 14% | 1010.8 hPa | 0 mm | 2.24 m/s, 115° | - | - |
| 1787881781 | 34.44° C | 14% | 1010.8 hPa | 0 mm | 2.68 m/s, 117° | - | - |
| 1787881483 | 34.44° C | 14% | 1010.8 hPa | 0 mm | 0 m/s | - | - |
| 1787881182 | 34.44° C | 14% | 1010.8 hPa | 0 mm | 2.68 m/s, 119° | - | - |
| 1787880883 | 34.44° C | 14% | 1010.8 hPa | 0 mm | 1.79 m/s, 189° | - | - |
* Rain latest hour (hover to see other rain measurements)
** Current wind speed in m/s (hover to see current wind gust speed)